Погода Гомовона 2 недели

Тверская область, Россия

24 мая-05 июня
  • 24мая
    Сегодня
    +6°
    +21°
    Ясно и безоблачно
    ВремяПогодаТемператураВлажностьДавлениеВетер, м/сВероятность осадков
    00:00Ясно и безоблачно+12°C57 %754 мм2.9 м/с2 %
    03:00Ясно и безоблачно+9°C60 %755 мм2.6 м/с2 %
    06:00Ясно и безоблачно+10°C64 %756 мм2.3 м/с2 %
    09:00Ясно и безоблачно+16°C47 %757 мм2.3 м/с2 %
    12:00Ясно и безоблачно+20°C33 %756 мм4.1 м/с2 %
    15:00Ясно и безоблачно+21°C30 %756 мм3.9 м/с2 %
    18:00Ясно и безоблачно+21°C32 %755 мм3.4 м/с2 %
    21:00Ясно и безоблачно+16°C49 %755 мм2.6 м/с2 %
  • 25мая
    Суббота
    +9°
    +24°
    Ясно и безоблачно
    ВремяПогодаТемператураВлажностьДавлениеВетер, м/сВероятность осадков
    00:00Ясно и безоблачно+12°C53 %755 мм3.0 м/с2 %
    03:00Ясно и безоблачно+8°C62 %755 мм2.2 м/с2 %
    06:00Ясно и безоблачно+8°C68 %755 мм2.2 м/с2 %
    09:00Ясно и безоблачно+17°C53 %754 мм1.9 м/с2 %
    12:00Ясно и безоблачно+21°C37 %754 мм2.2 м/с2 %
    15:00Ясно и безоблачно+23°C33 %753 мм2.3 м/с2 %
    18:00Ясно и безоблачно+23°C35 %751 мм2.3 м/с2 %
    21:00Ясно и безоблачно+17°C65 %751 мм2.3 м/с2 %
  • 26мая
    Воскресенье
    +11°
    +27°
    Облачно с прояснениями
    ВремяПогодаТемператураВлажностьДавлениеВетер, м/сВероятность осадков
    00:00Ясно и безоблачно+12°C78 %751 мм2.2 м/с2 %
    03:00Ясно и безоблачно+11°C75 %751 мм1.5 м/с2 %
    06:00Ясно и безоблачно+11°C80 %751 мм1.5 м/с2 %
    09:00Ясно и безоблачно+20°C53 %751 мм1.3 м/с2 %
    12:00Облачно с прояснениями+24°C37 %751 мм2.1 м/с11 %
    15:00Облачно с прояснениями+25°C37 %751 мм3.0 м/с31 %
    18:00Практически безоблачно+23°C57 %751 мм3.3 м/с44 %
    21:00Практически безоблачно+19°C75 %751 мм2.3 м/с17 %
  • 27мая
    Понедельник
    +11°
    +23°
    Облачно с прояснениями
    ВремяПогодаТемператураВлажностьДавлениеВетер, м/сВероятность осадков
    00:00Облачно с прояснениями+15°C89 %752 мм2.6 м/с3 %
    03:00Небольшая облачность+12°C86 %752 мм3.5 м/с2 %
    06:00Ясно и безоблачно+11°C68 %753 мм3.0 м/с2 %
    09:00Ясно и безоблачно+18°C57 %754 мм2.8 м/с2 %
    12:00Практически безоблачно+22°C43 %754 мм3.0 м/с10 %
    15:00Облачно с прояснениями+23°C35 %753 мм2.5 м/с6 %
    18:00Практически безоблачно+23°C35 %752 мм2.1 м/с18 %
    21:00Ясно и безоблачно+19°C53 %752 мм2.6 м/с4 %
Мы используем cookies
Соглашаюсь